createdAt,value
2018-05-07T00:02:20.013Z,14.80
2018-05-07T00:04:46.061Z,14.90
2018-05-07T00:07:12.082Z,14.90
2018-05-07T00:09:38.089Z,14.80
2018-05-07T00:12:04.088Z,15.00
2018-05-07T00:14:30.066Z,14.80
2018-05-07T00:16:56.045Z,14.70
2018-05-07T00:19:22.021Z,14.70
2018-05-07T00:21:48.148Z,14.70
2018-05-07T00:24:14.137Z,14.70
2018-05-07T00:26:40.198Z,14.60
2018-05-07T00:29:06.933Z,14.60
2018-05-07T00:31:32.917Z,14.60
2018-05-07T00:33:58.894Z,14.60
2018-05-07T00:36:25.642Z,14.60
2018-05-07T00:38:52.361Z,14.50
2018-05-07T00:41:18.357Z,14.50
2018-05-07T00:43:44.359Z,14.50
2018-05-07T00:46:10.349Z,14.30
2018-05-07T00:48:36.353Z,14.40
2018-05-07T00:51:02.354Z,14.40
2018-05-07T00:53:28.337Z,14.60
2018-05-07T00:55:54.337Z,14.50
2018-05-07T00:58:21.060Z,14.40
2018-05-07T01:00:47.800Z,14.40
2018-05-07T01:03:13.829Z,14.30
2018-05-07T01:05:39.957Z,14.30
2018-05-07T01:08:05.953Z,14.40
2018-05-07T01:10:32.117Z,14.40
2018-05-07T01:12:58.863Z,14.30
2018-05-07T01:15:24.866Z,14.30
2018-05-07T01:17:51.605Z,14.20
2018-05-07T01:20:19.069Z,14.20
2018-05-07T01:22:45.821Z,14.10
2018-05-07T01:25:12.532Z,14.10
2018-05-07T01:27:38.537Z,14.10
2018-05-07T01:30:04.551Z,14.10
2018-05-07T01:32:30.544Z,14.10
2018-05-07T01:34:56.517Z,14.10
2018-05-07T01:37:22.489Z,14.00
2018-05-07T01:39:48.481Z,14.00
2018-05-07T01:42:14.476Z,14.10
2018-05-07T01:44:40.486Z,14.10
2018-05-07T01:47:06.495Z,14.10
2018-05-07T01:49:32.499Z,14.10
2018-05-07T01:51:59.213Z,14.10
2018-05-07T01:54:25.237Z,14.10
2018-05-07T01:56:51.213Z,14.10
2018-05-07T01:59:17.212Z,14.10
2018-05-07T02:01:43.953Z,14.20
2018-05-07T02:04:09.949Z,14.20
2018-05-07T02:06:35.925Z,14.30
2018-05-07T02:09:01.938Z,14.30
2018-05-07T02:11:27.916Z,14.20
2018-05-07T02:13:53.911Z,14.10
2018-05-07T02:16:19.866Z,14.00
2018-05-07T02:18:45.811Z,14.00
2018-05-07T02:21:12.534Z,14.00
2018-05-07T02:23:39.265Z,14.10
2018-05-07T02:26:05.265Z,14.10
2018-05-07T02:28:31.317Z,14.10
2018-05-07T02:30:57.317Z,13.90
2018-05-07T02:33:23.306Z,14.00
2018-05-07T02:35:49.365Z,14.00
2018-05-07T02:38:15.429Z,14.00
2018-05-07T02:40:42.165Z,13.90
2018-05-07T02:43:08.903Z,13.80
2018-05-07T02:45:35.650Z,13.90
2018-05-07T02:48:01.618Z,13.90
2018-05-07T02:50:27.673Z,13.90
2018-05-07T02:52:53.651Z,13.80
2018-05-07T02:55:19.648Z,13.80
2018-05-07T02:57:46.349Z,13.80
2018-05-07T03:00:12.341Z,13.80
2018-05-07T03:02:38.354Z,13.90
2018-05-07T03:05:04.350Z,13.80
2018-05-07T03:07:31.097Z,13.60
2018-05-07T03:09:57.082Z,13.60
2018-05-07T03:12:23.054Z,13.60
2018-05-07T03:14:49.077Z,13.70
2018-05-07T03:17:15.060Z,13.60
2018-05-07T03:19:41.024Z,13.60
2018-05-07T03:22:07.010Z,13.70
2018-05-07T03:24:32.988Z,13.70
2018-05-07T03:26:58.985Z,13.60
2018-05-07T03:29:24.973Z,13.50
2018-05-07T03:31:50.977Z,13.60
2018-05-07T03:34:16.988Z,13.50
2018-05-07T03:36:42.985Z,13.60
2018-05-07T03:39:09.189Z,13.60
2018-05-07T03:41:35.933Z,13.60
2018-05-07T03:44:02.653Z,13.50
2018-05-07T03:46:28.677Z,13.50
2018-05-07T03:48:54.653Z,13.50
2018-05-07T03:51:20.633Z,13.50
2018-05-07T03:53:47.381Z,13.60
2018-05-07T03:56:14.109Z,13.60
2018-05-07T03:58:40.861Z,13.60
2018-05-07T04:01:07.599Z,13.50
2018-05-07T04:03:33.564Z,13.50
2018-05-07T04:05:59.528Z,13.40
2018-05-07T04:08:25.505Z,13.40
2018-05-07T04:10:51.476Z,13.50
2018-05-07T04:13:17.493Z,13.50
2018-05-07T04:15:43.453Z,13.40
2018-05-07T04:18:15.585Z,13.40
2018-05-07T04:20:47.668Z,13.50
2018-05-07T04:23:20.509Z,13.60
2018-05-07T04:25:47.361Z,13.60
2018-05-07T04:28:13.379Z,13.60
2018-05-07T04:30:39.377Z,13.60
2018-05-07T04:33:05.365Z,13.60
2018-05-07T04:35:32.084Z,13.50
2018-05-07T04:37:58.087Z,13.50
2018-05-07T04:40:24.063Z,13.30
2018-05-07T04:42:50.788Z,13.50
2018-05-07T04:45:17.702Z,13.60
2018-05-07T04:47:43.691Z,13.60
2018-05-07T04:50:09.678Z,13.70
2018-05-07T04:52:36.409Z,13.70
2018-05-07T04:55:02.454Z,13.70
2018-05-07T04:57:28.445Z,13.80
2018-05-07T04:59:55.193Z,13.80
2018-05-07T05:02:21.189Z,13.80
2018-05-07T05:04:47.197Z,13.80
2018-05-07T05:07:13.196Z,13.90
2018-05-07T05:09:39.932Z,13.90
2018-05-07T05:12:05.925Z,13.90
2018-05-07T05:14:31.969Z,14.00
2018-05-07T05:16:57.962Z,14.00
2018-05-07T05:19:23.973Z,14.10
2018-05-07T05:21:50.070Z,14.10
2018-05-07T05:24:16.273Z,14.00
2018-05-07T05:26:43.013Z,14.10
2018-05-07T05:29:10.488Z,14.00
2018-05-07T05:31:36.469Z,14.00
2018-05-07T05:34:02.430Z,14.10
2018-05-07T05:36:28.427Z,14.20
2018-05-07T05:38:54.359Z,14.40
2018-05-07T05:41:21.113Z,14.60
2018-05-07T05:43:47.724Z,14.60
2018-05-07T05:46:13.758Z,14.60
2018-05-07T05:48:40.502Z,14.50
2018-05-07T05:51:06.541Z,14.50
2018-05-07T05:53:32.557Z,14.40
2018-05-07T05:55:58.556Z,14.60
2018-05-07T05:58:25.338Z,14.70
2018-05-07T06:00:51.365Z,14.70
2018-05-07T06:03:17.352Z,14.70
2018-05-07T06:05:44.105Z,14.90
2018-05-07T06:08:10.084Z,14.90
2018-05-07T06:10:36.080Z,15.00
2018-05-07T06:13:02.121Z,15.00
2018-05-07T06:15:28.106Z,15.10
2018-05-07T06:17:54.106Z,15.10
2018-05-07T06:20:20.825Z,15.30
2018-05-07T06:22:46.845Z,15.20
2018-05-07T06:25:13.611Z,15.40
2018-05-07T06:27:40.335Z,15.40
2018-05-07T06:30:06.478Z,15.40
2018-05-07T06:32:33.195Z,15.50
2018-05-07T06:34:59.171Z,15.50
2018-05-07T06:37:25.167Z,15.60
2018-05-07T06:39:51.893Z,15.70
2018-05-07T06:42:18.657Z,15.70
2018-05-07T06:44:44.697Z,15.80
2018-05-07T06:47:10.697Z,15.80
2018-05-07T06:49:36.653Z,15.90
2018-05-07T06:52:02.722Z,15.90
2018-05-07T06:54:29.390Z,16.10
2018-05-07T06:56:56.121Z,16.10
2018-05-07T06:59:22.862Z,16.20
2018-05-07T07:01:49.576Z,16.20
2018-05-07T07:04:15.577Z,16.20
2018-05-07T07:06:41.567Z,16.30
2018-05-07T07:09:07.557Z,16.40
2018-05-07T07:11:33.561Z,16.40
2018-05-07T07:13:59.585Z,16.40
2018-05-07T07:16:25.584Z,16.40
2018-05-07T07:18:51.591Z,16.50
2018-05-07T07:21:17.589Z,16.60
2018-05-07T07:23:44.328Z,16.70
2018-05-07T07:26:11.077Z,16.90
2018-05-07T07:28:37.913Z,16.90
2018-05-07T07:31:04.638Z,16.90
2018-05-07T07:33:30.661Z,16.90
2018-05-07T07:35:56.658Z,17.10
2018-05-07T07:38:22.660Z,17.00
2018-05-07T07:40:48.633Z,17.00
2018-05-07T07:43:15.369Z,17.30
2018-05-07T07:45:42.083Z,17.30
2018-05-07T07:48:08.046Z,17.30
2018-05-07T07:50:34.756Z,17.40
2018-05-07T07:53:00.715Z,17.40
2018-05-07T07:55:26.907Z,17.50
2018-05-07T07:57:52.845Z,17.50
2018-05-07T08:00:18.782Z,17.50
2018-05-07T08:02:44.745Z,17.60
2018-05-07T08:05:10.725Z,17.70
2018-05-07T08:07:37.477Z,18.00
2018-05-07T08:10:03.501Z,17.90
2018-05-07T08:12:30.213Z,18.00
2018-05-07T08:14:56.196Z,18.00
2018-05-07T08:17:22.180Z,18.00
2018-05-07T08:19:48.928Z,18.00
2018-05-07T08:22:14.905Z,18.00
2018-05-07T08:24:40.987Z,18.20
2018-05-07T08:27:07.189Z,18.40
2018-05-07T08:29:33.302Z,18.30
2018-05-07T08:31:59.281Z,18.30
2018-05-07T08:34:26.518Z,18.40
2018-05-07T08:36:52.529Z,18.50
2018-05-07T08:39:19.260Z,18.70
2018-05-07T08:41:45.973Z,18.70
2018-05-07T08:44:11.944Z,18.70
2018-05-07T08:46:37.945Z,18.80
2018-05-07T08:49:04.688Z,19.00
2018-05-07T08:51:31.445Z,19.10
2018-05-07T08:53:57.428Z,19.10
2018-05-07T08:56:23.518Z,18.90
2018-05-07T08:58:49.573Z,18.90
2018-05-07T09:01:15.672Z,18.90
2018-05-07T09:03:41.665Z,19.10
2018-05-07T09:06:07.655Z,19.30
2018-05-07T09:08:33.826Z,19.50
2018-05-07T09:10:59.865Z,19.50
2018-05-07T09:13:26.736Z,19.50
2018-05-07T09:15:53.402Z,19.70
2018-05-07T09:18:21.418Z,19.70
2018-05-07T09:20:47.459Z,19.50
2018-05-07T09:23:13.453Z,19.60
2018-05-07T09:25:39.421Z,19.90
2018-05-07T09:28:05.477Z,19.80
2018-05-07T09:30:32.192Z,20.10
2018-05-07T09:32:58.248Z,20.20
2018-05-07T09:35:24.244Z,20.40
2018-05-07T09:37:50.241Z,20.60
2018-05-07T09:40:16.229Z,20.80
2018-05-07T09:42:42.226Z,20.90
2018-05-07T09:45:08.233Z,20.80
2018-05-07T09:47:34.348Z,20.90
2018-05-07T09:50:00.384Z,20.80
2018-05-07T09:52:27.053Z,21.10
2018-05-07T09:54:53.149Z,21.20
2018-05-07T09:57:19.176Z,21.30
2018-05-07T09:59:45.211Z,21.50
2018-05-07T10:02:11.930Z,21.50
2018-05-07T10:04:37.933Z,21.50
2018-05-07T10:07:03.914Z,21.60
2018-05-07T10:09:29.953Z,21.90
2018-05-07T10:11:55.943Z,21.90
2018-05-07T10:14:22.720Z,22.00
2018-05-07T10:16:48.704Z,22.00
2018-05-07T10:19:14.812Z,22.10
2018-05-07T10:21:41.535Z,22.30
2018-05-07T10:24:07.952Z,22.30
2018-05-07T10:26:33.860Z,22.10
2018-05-07T10:28:59.860Z,22.30
2018-05-07T10:31:25.818Z,22.60
2018-05-07T10:33:51.828Z,22.80
2018-05-07T10:36:17.853Z,23.00
2018-05-07T10:38:43.843Z,23.00
2018-05-07T10:41:10.153Z,22.90
2018-05-07T10:43:37.736Z,23.10
2018-05-07T10:46:03.696Z,23.10
2018-05-07T10:48:29.668Z,22.90
2018-05-07T10:50:55.669Z,23.10
2018-05-07T10:53:21.648Z,23.40
2018-05-07T10:55:47.632Z,23.70
2018-05-07T10:58:13.717Z,23.50
2018-05-07T11:00:39.945Z,23.40
2018-05-07T11:03:05.940Z,23.10
2018-05-07T11:05:31.949Z,23.50
2018-05-07T11:07:58.663Z,23.20
2018-05-07T11:10:24.686Z,23.20
2018-05-07T11:12:50.697Z,23.50
2018-05-07T11:15:16.713Z,24.20
2018-05-07T11:17:42.717Z,24.50
2018-05-07T11:20:08.712Z,24.50
2018-05-07T11:22:35.609Z,24.30
2018-05-07T11:25:01.593Z,24.30
2018-05-07T11:27:27.601Z,24.40
2018-05-07T11:29:54.346Z,24.50
2018-05-07T11:32:21.113Z,25.00
2018-05-07T11:34:47.089Z,25.00
2018-05-07T11:37:13.836Z,25.40
2018-05-07T11:39:39.864Z,25.40
2018-05-07T11:42:06.598Z,25.40
2018-05-07T11:44:33.365Z,25.50
2018-05-07T11:47:00.089Z,25.90
2018-05-07T11:49:26.815Z,24.90
2018-05-07T11:51:52.813Z,24.80
2018-05-07T11:54:18.794Z,25.00
2018-05-07T11:56:45.633Z,25.80
2018-05-07T11:59:11.624Z,25.80
2018-05-07T12:01:37.600Z,25.90
2018-05-07T12:04:03.694Z,26.10
2018-05-07T12:06:30.408Z,26.00
2018-05-07T12:08:57.239Z,25.90
2018-05-07T12:11:24.173Z,26.20
2018-05-07T12:13:50.152Z,26.20
2018-05-07T12:16:16.861Z,26.60
2018-05-07T12:18:42.840Z,26.60
2018-05-07T12:21:08.822Z,26.40
2018-05-07T12:23:34.809Z,26.70
2018-05-07T12:26:00.805Z,27.00
2018-05-07T12:28:26.801Z,27.10
2018-05-07T12:30:52.805Z,26.40
2018-05-07T12:33:19.545Z,26.00
2018-05-07T12:35:46.284Z,25.40
2018-05-07T12:38:13.038Z,25.60
2018-05-07T12:40:39.761Z,26.10
2018-05-07T12:43:05.728Z,26.10
2018-05-07T12:45:31.726Z,26.60
2018-05-07T12:47:58.436Z,27.30
2018-05-07T12:50:24.448Z,27.30
2018-05-07T12:52:50.426Z,27.20
2018-05-07T12:55:16.465Z,27.50
2018-05-07T12:57:42.456Z,27.20
2018-05-07T13:00:09.214Z,26.80
2018-05-07T13:02:35.949Z,27.20
2018-05-07T13:05:01.944Z,27.20
2018-05-07T13:07:27.913Z,27.30
2018-05-07T13:09:53.910Z,26.70
2018-05-07T13:12:19.869Z,26.90
2018-05-07T13:14:45.857Z,26.80
2018-05-07T13:17:11.848Z,27.40
2018-05-07T13:19:37.838Z,28.10
2018-05-07T13:22:03.822Z,27.20
2018-05-07T13:24:30.565Z,27.40
2018-05-07T13:26:56.557Z,27.50
2018-05-07T13:29:22.604Z,27.50
2018-05-07T13:31:49.333Z,28.30
2018-05-07T13:34:15.312Z,28.20
2018-05-07T13:36:41.318Z,28.10
2018-05-07T13:39:07.286Z,27.50
2018-05-07T13:41:33.278Z,27.60
2018-05-07T13:43:59.308Z,28.10
2018-05-07T13:46:25.300Z,28.10
2018-05-07T13:48:51.271Z,28.10
2018-05-07T13:51:17.260Z,27.60
2018-05-07T13:53:43.260Z,27.60
2018-05-07T13:56:09.240Z,28.30
2018-05-07T13:58:35.221Z,28.10
2018-05-07T14:01:01.242Z,28.70
2018-05-07T14:03:27.232Z,28.80
2018-05-07T14:05:54.005Z,28.20
2018-05-07T14:08:20.720Z,28.30
2018-05-07T14:10:46.713Z,28.50
2018-05-07T14:13:12.706Z,28.60
2018-05-07T14:15:38.685Z,28.30
2018-05-07T14:18:04.704Z,28.00
2018-05-07T14:20:30.700Z,28.00
2018-05-07T14:22:56.655Z,27.70
2018-05-07T14:25:23.832Z,28.40
2018-05-07T14:27:50.888Z,28.40
2018-05-07T14:30:16.950Z,28.30
2018-05-07T14:32:42.933Z,28.80
2018-05-07T14:35:09.650Z,28.80
2018-05-07T14:37:35.682Z,28.80
2018-05-07T14:40:02.448Z,28.20
2018-05-07T14:42:28.487Z,28.20
2018-05-07T14:44:54.469Z,27.80
2018-05-07T14:47:20.461Z,28.30
2018-05-07T14:49:46.465Z,28.00
2018-05-07T14:52:12.453Z,27.70
2018-05-07T14:54:38.441Z,28.20
2018-05-07T14:57:04.401Z,27.40
2018-05-07T14:59:30.404Z,28.10
2018-05-07T15:01:57.129Z,27.70
2018-05-07T15:04:23.129Z,27.70
2018-05-07T15:06:50.366Z,27.70
2018-05-07T15:09:16.736Z,27.20
2018-05-07T15:11:43.465Z,27.60
2018-05-07T15:14:15.554Z,27.70
2018-05-07T15:16:42.280Z,27.40
2018-05-07T15:19:08.281Z,27.40
2018-05-07T15:21:34.248Z,27.70
2018-05-07T15:24:00.984Z,28.50
2018-05-07T15:26:27.708Z,28.80
2018-05-07T15:28:54.471Z,28.90
2018-05-07T15:31:20.489Z,29.10
2018-05-07T15:33:46.497Z,28.90
2018-05-07T15:36:12.543Z,29.50
2018-05-07T15:38:38.443Z,29.80
2018-05-07T15:41:05.164Z,29.40
2018-05-07T15:43:31.129Z,29.40
2018-05-07T15:45:57.863Z,28.30
2018-05-07T15:48:23.822Z,28.30
2018-05-07T15:50:49.834Z,28.90
2018-05-07T15:53:15.825Z,29.20
2018-05-07T15:55:42.589Z,29.70
2018-05-07T15:58:08.583Z,29.60
2018-05-07T16:00:35.342Z,29.50
2018-05-07T16:03:01.458Z,29.50
2018-05-07T16:05:27.333Z,28.90
2018-05-07T16:07:53.337Z,29.20
2018-05-07T16:10:19.374Z,29.50
2018-05-07T16:12:45.357Z,29.60
2018-05-07T16:15:12.182Z,29.50
2018-05-07T16:17:38.109Z,29.50
2018-05-07T16:20:04.858Z,28.70
2018-05-07T16:22:31.580Z,29.10
2018-05-07T16:24:57.724Z,29.10
2018-05-07T16:27:24.458Z,29.10
2018-05-07T16:29:51.181Z,29.20
2018-05-07T16:32:17.174Z,29.20
2018-05-07T16:34:43.176Z,29.10
2018-05-07T16:37:09.157Z,29.20
2018-05-07T16:39:35.136Z,29.30
2018-05-07T16:42:01.108Z,29.20
2018-05-07T16:44:27.833Z,29.10
2018-05-07T16:46:53.808Z,29.20
2018-05-07T16:49:19.772Z,29.10
2018-05-07T16:51:45.769Z,29.10
2018-05-07T16:54:11.748Z,28.60
2018-05-07T16:56:37.738Z,28.70
2018-05-07T16:59:04.592Z,28.70
2018-05-07T17:01:31.461Z,28.80
2018-05-07T17:03:57.417Z,28.80
2018-05-07T17:06:23.538Z,28.80
2018-05-07T17:08:49.657Z,28.80
2018-05-07T17:11:15.644Z,28.70
2018-05-07T17:13:41.642Z,28.70
2018-05-07T17:16:07.645Z,28.60
2018-05-07T17:18:33.657Z,28.60
2018-05-07T17:20:59.640Z,28.50
2018-05-07T17:23:26.377Z,28.40
2018-05-07T17:25:52.351Z,28.40
2018-05-07T17:28:18.348Z,28.40
2018-05-07T17:30:44.329Z,28.20
2018-05-07T17:33:10.403Z,28.00
2018-05-07T17:35:36.385Z,28.00
2018-05-07T17:38:02.447Z,28.10
2018-05-07T17:40:28.445Z,27.90
2018-05-07T17:42:55.233Z,27.70
2018-05-07T17:45:27.489Z,27.70
2018-05-07T17:47:59.577Z,27.60
2018-05-07T17:50:25.540Z,27.30
2018-05-07T17:52:51.536Z,27.30
2018-05-07T17:55:17.674Z,27.10
2018-05-07T17:57:44.558Z,26.70
2018-05-07T18:00:10.705Z,26.70
2018-05-07T18:02:36.844Z,26.90
2018-05-07T18:05:04.368Z,26.30
2018-05-07T18:07:31.122Z,26.00
2018-05-07T18:09:57.113Z,26.00
2018-05-07T18:12:24.568Z,25.80
2018-05-07T18:14:50.548Z,25.80
2018-05-07T18:17:16.532Z,25.60
2018-05-07T18:19:42.514Z,25.50
2018-05-07T18:22:08.584Z,25.40
2018-05-07T18:24:34.672Z,24.80
2018-05-07T18:27:01.505Z,24.60
2018-05-07T18:29:27.552Z,24.60
2018-05-07T18:31:53.628Z,24.30
2018-05-07T18:34:19.711Z,23.90
2018-05-07T18:36:45.790Z,23.40
2018-05-07T18:39:11.800Z,23.20
2018-05-07T18:41:38.064Z,23.00
2018-05-07T18:44:04.049Z,22.90
2018-05-07T18:46:30.061Z,22.80
2018-05-07T18:48:56.041Z,22.60
2018-05-07T18:51:22.045Z,22.50
2018-05-07T18:53:48.016Z,22.30
2018-05-07T18:56:14.841Z,22.00
2018-05-07T18:58:40.894Z,21.90
2018-05-07T19:01:06.945Z,21.80
2018-05-07T19:03:33.121Z,21.70
2018-05-07T19:05:59.889Z,21.30
2018-05-07T19:08:25.884Z,21.30
2018-05-07T19:10:51.953Z,21.30
2018-05-07T19:13:18.121Z,21.00
2018-05-07T19:15:44.228Z,21.10
2018-05-07T19:18:10.233Z,21.00
2018-05-07T19:20:36.302Z,20.90
2018-05-07T19:23:02.388Z,20.70
2018-05-07T19:25:28.391Z,20.60
2018-05-07T19:27:54.553Z,20.50
2018-05-07T19:30:20.529Z,20.50
2018-05-07T19:32:46.533Z,20.50
2018-05-07T19:35:12.497Z,20.40
2018-05-07T19:37:38.509Z,20.20
2018-05-07T19:40:05.348Z,20.30
2018-05-07T19:42:31.437Z,20.20
2018-05-07T19:44:58.208Z,20.30
2018-05-07T19:47:24.946Z,20.10
2018-05-07T19:49:51.892Z,20.00
2018-05-07T19:52:18.617Z,19.80
2018-05-07T19:54:45.387Z,19.60
2018-05-07T19:57:11.494Z,19.60
2018-05-07T19:59:38.225Z,19.70
2018-05-07T20:02:04.236Z,19.70
2018-05-07T20:04:30.234Z,19.70
2018-05-07T20:06:57.040Z,19.50
2018-05-07T20:09:23.024Z,19.50
2018-05-07T20:11:49.037Z,19.40
2018-05-07T20:14:15.171Z,19.40
2018-05-07T20:16:41.206Z,19.40
2018-05-07T20:19:07.966Z,19.40
2018-05-07T20:21:33.999Z,19.10
2018-05-07T20:24:00.742Z,19.40
2018-05-07T20:26:26.737Z,19.40
2018-05-07T20:28:52.785Z,19.00
2018-05-07T20:31:19.599Z,18.40
2018-05-07T20:33:46.522Z,18.10
2018-05-07T20:36:12.926Z,18.10
2018-05-07T20:38:39.076Z,18.10
2018-05-07T20:41:05.085Z,18.10
2018-05-07T20:43:31.110Z,18.20
2018-05-07T20:46:00.197Z,18.10
2018-05-07T20:48:26.208Z,18.00
2018-05-07T20:50:52.921Z,17.90
2018-05-07T20:53:19.674Z,17.80
2018-05-07T20:55:45.638Z,17.70
2018-05-07T20:58:11.665Z,17.90
2018-05-07T21:00:37.645Z,17.70
2018-05-07T21:03:04.389Z,17.60
2018-05-07T21:05:31.113Z,17.60
2018-05-07T21:07:57.865Z,17.50
2018-05-07T21:10:24.589Z,17.60
2018-05-07T21:12:50.568Z,17.50
2018-05-07T21:15:16.549Z,17.50
2018-05-07T21:17:43.268Z,17.40
2018-05-07T21:20:09.293Z,17.40
2018-05-07T21:22:35.293Z,17.30
2018-05-07T21:25:01.287Z,17.20
2018-05-07T21:27:27.269Z,17.30
2018-05-07T21:29:53.309Z,17.20
2018-05-07T21:32:20.014Z,17.10
2018-05-07T21:34:46.017Z,17.10
2018-05-07T21:37:12.001Z,17.10
2018-05-07T21:39:38.732Z,17.10
2018-05-07T21:42:04.906Z,17.00
2018-05-07T21:44:30.888Z,17.10
2018-05-07T21:46:57.623Z,17.10
2018-05-07T21:49:24.336Z,16.90
2018-05-07T21:51:51.106Z,17.00
2018-05-07T21:54:17.832Z,16.90
2018-05-07T21:56:43.902Z,16.90
2018-05-07T21:59:09.881Z,16.90
2018-05-07T22:01:36.642Z,16.70
2018-05-07T22:04:02.820Z,16.70
2018-05-07T22:06:28.897Z,16.70
2018-05-07T22:08:55.613Z,16.70
2018-05-07T22:11:21.636Z,16.70
2018-05-07T22:13:47.661Z,16.60
2018-05-07T22:16:13.657Z,16.60
2018-05-07T22:18:39.649Z,16.60
2018-05-07T22:21:05.645Z,16.60
2018-05-07T22:23:32.396Z,16.50
2018-05-07T22:25:58.429Z,16.40
2018-05-07T22:28:24.426Z,16.50
2018-05-07T22:30:51.157Z,16.40
2018-05-07T22:33:17.156Z,16.30
2018-05-07T22:35:43.141Z,16.40
2018-05-07T22:38:09.129Z,16.40
2018-05-07T22:40:35.121Z,16.30
2018-05-07T22:43:01.114Z,16.40
2018-05-07T22:45:27.093Z,16.50
2018-05-07T22:47:53.090Z,16.40
2018-05-07T22:50:19.073Z,16.40
2018-05-07T22:52:45.797Z,16.50
2018-05-07T22:55:18.561Z,16.30
2018-05-07T22:57:44.577Z,16.30
2018-05-07T23:00:10.586Z,16.30
2018-05-07T23:02:36.584Z,16.40
2018-05-07T23:05:02.585Z,16.50
2018-05-07T23:07:28.581Z,16.50
2018-05-07T23:09:55.324Z,16.50
2018-05-07T23:12:21.321Z,16.40
2018-05-07T23:14:47.313Z,16.50
2018-05-07T23:17:13.357Z,16.50
2018-05-07T23:19:40.116Z,16.60
2018-05-07T23:22:06.097Z,16.60
2018-05-07T23:24:32.093Z,16.50
2018-05-07T23:26:58.057Z,16.50
2018-05-07T23:29:24.036Z,16.50
2018-05-07T23:31:50.005Z,16.40
2018-05-07T23:34:15.964Z,16.40
2018-05-07T23:36:41.937Z,16.40
2018-05-07T23:39:07.926Z,16.40
2018-05-07T23:41:34.669Z,16.40
2018-05-07T23:44:01.394Z,16.40
2018-05-07T23:46:28.142Z,16.40
2018-05-07T23:48:54.865Z,16.30
2018-05-07T23:51:20.896Z,16.30
2018-05-07T23:53:46.872Z,16.40
2018-05-07T23:56:12.864Z,16.30
2018-05-07T23:58:38.848Z,16.20
